Terminal Aerodrome Forecast
Issued by NWS Upton, NY

Home | Current Version | Previous Version | Text Only | Print | Product List | Glossary On
Versions: 1 2 3 4 5 6 7 8 9 10 11 12 13 14 15 16 17 18 19 20 21 22 23 24 25 26 27 28 29 30 31 32 33 34 35 36
812
FTUS41 KOKX 032333
TAFJFK
TAF
KJFK 032333Z 0400/0506 31014G21KT P6SM SCT050
     FM040400 31013KT P6SM FEW050
     FM041100 33012KT P6SM FEW050
     FM042200 33007KT P6SM FEW050 SCT250
     FM050000 36004KT P6SM BKN250
     FM050300 03004KT P6SM BKN120 BKN250=

USA.gov is the U.S. government's official web portal to all federal, state and local government web resources and services.